Time;durP1;ratioP1;P1;durP2;ratioP2;P2;SDS_P1;SDS_P2;PMS_P1;PMS_P2;Temp;Humidity;BMP_temperature;BMP_pressure;BME280_temperature;BME280_humidity;BME280_pressure;Samples;Min_cycle;Max_cycle;Signal;HPM_P1;HPM_P2
2022/08/27 00:00:14;;;;;;;21.67;12.05;;;23.50;99.90;;;;;;5031158;28;20032;-51
2022/08/27 00:02:44;;;;;;;20.35;11.70;;;;;;;;;;4998995;28;20054;-46
2022/08/27 00:05:13;;;;;;;17.90;11.45;;;23.20;99.90;;;;;;5032696;28;20465;-46
2022/08/27 00:07:39;;;;;;;23.15;15.32;;;23.30;99.90;;;;;;5032672;28;20021;-51
2022/08/27 00:10:07;;;;;;;18.90;12.02;;;23.20;99.90;;;;;;5027025;28;20061;-49
2022/08/27 00:12:34;;;;;;;19.80;12.32;;;23.30;99.90;;;;;;5029711;28;20064;-51
2022/08/27 00:15:00;;;;;;;20.27;12.50;;;23.30;99.90;;;;;;5032608;28;20025;-48
2022/08/27 00:17:26;;;;;;;19.15;12.15;;;23.40;99.90;;;;;;5032630;28;20469;-48
2022/08/27 00:19:52;;;;;;;19.35;12.38;;;23.10;99.90;;;;;;5032964;28;20079;-50
2022/08/27 00:22:18;;;;;;;18.98;11.43;;;23.10;99.90;;;;;;5032452;28;20042;-47
2022/08/27 00:24:43;;;;;;;16.88;11.80;;;23.30;99.90;;;;;;5032103;28;20029;-50
2022/08/27 00:27:09;;;;;;;18.85;11.40;;;23.30;99.90;;;;;;5032502;28;20029;-49
2022/08/27 00:29:35;;;;;;;23.80;12.15;;;23.40;99.90;;;;;;5033280;28;20024;-49
2022/08/27 00:32:01;;;;;;;19.75;12.10;;;23.30;99.90;;;;;;5032032;28;20036;-50
2022/08/27 00:34:27;;;;;;;24.42;12.77;;;23.30;99.90;;;;;;5033145;28;20041;-49
2022/08/27 00:36:53;;;;;;;17.77;12.38;;;23.00;99.90;;;;;;4980830;28;20041;-48
2022/08/27 00:39:19;;;;;;;25.27;13.23;;;22.80;99.90;;;;;;5032304;28;20033;-48
2022/08/27 00:41:47;;;;;;;18.33;10.93;;;22.80;99.90;;;;;;5032758;28;20041;-50
2022/08/27 00:44:13;;;;;;;20.38;12.48;;;22.90;99.90;;;;;;5032601;28;20439;-47
2022/08/27 00:46:54;;;;;;;20.85;12.10;;;23.00;99.90;;;;;;5031348;28;20385;-47
2022/08/27 00:49:41;;;;;;;17.20;11.98;;;23.10;99.90;;;;;;5026735;28;20025;-49
2022/08/27 00:52:19;;;;;;;15.25;11.98;;;23.20;99.90;;;;;;5043663;28;20045;-50
2022/08/27 00:54:45;;;;;;;20.05;12.70;;;23.30;99.90;;;;;;5030517;28;20096;-50
2022/08/27 00:57:14;;;;;;;19.52;12.63;;;23.10;99.90;;;;;;5012172;28;20077;-51
2022/08/27 00:59:41;;;;;;;18.27;12.43;;;23.00;99.90;;;;;;5031624;28;20024;-50
2022/08/27 01:02:19;;;;;;;22.20;12.02;;;23.10;99.90;;;;;;5032710;28;20037;-48
2022/08/27 01:04:47;;;;;;;21.98;12.52;;;23.20;99.90;;;;;;5031486;28;20509;-48
2022/08/27 01:07:13;;;;;;;19.17;12.23;;;23.20;99.90;;;;;;5031548;28;20393;-47
2022/08/27 01:09:41;;;;;;;18.15;12.68;;;23.20;99.90;;;;;;5030702;28;20115;-51
2022/08/27 01:12:09;;;;;;;17.63;11.80;;;23.30;99.90;;;;;;5031346;28;20470;-51
2022/08/27 01:14:36;;;;;;;24.60;12.68;;;23.30;99.90;;;;;;5032778;28;20101;-49
2022/08/27 01:17:03;;;;;;;18.48;12.82;;;23.20;99.90;;;;;;5031294;28;20025;-49
2022/08/27 01:19:44;;;;;;;19.02;13.20;;;23.30;99.90;;;;;;5031493;28;20030;-52
2022/08/27 01:22:31;;;;;;;19.73;13.18;;;23.10;99.90;;;;;;5029774;28;20385;-50
2022/08/27 01:25:02;;;;;;;21.05;12.85;;;23.20;99.90;;;;;;5030696;28;20040;-48
2022/08/27 01:27:33;;;;;;;18.63;11.73;;;23.20;99.90;;;;;;5031411;28;20473;-47
2022/08/27 01:29:59;;;;;;;22.92;11.90;;;23.20;99.90;;;;;;5032025;28;20358;-49
2022/08/27 01:32:31;;;;;;;22.92;12.65;;;23.20;99.90;;;;;;5031212;28;20057;-48
2022/08/27 01:34:57;;;;;;;19.02;11.60;;;23.10;99.90;;;;;;5046043;28;20038;-50
2022/08/27 01:37:25;;;;;;;19.33;14.00;;;23.20;99.90;;;;;;5031131;28;20029;-50
2022/08/27 01:39:53;;;;;;;23.60;12.38;;;23.20;99.90;;;;;;5031347;28;20029;-48
2022/08/27 01:42:29;;;;;;;19.48;12.27;;;23.20;99.90;;;;;;5031136;28;20052;-50
2022/08/27 01:45:03;;;;;;;19.75;12.45;;;23.20;99.90;;;;;;5027617;28;20081;-49
2022/08/27 01:47:29;;;;;;;18.33;12.43;;;23.20;99.90;;;;;;5027261;28;20037;-49
2022/08/27 01:49:56;;;;;;;20.90;12.98;;;23.20;99.90;;;;;;5028607;28;20400;-51
2022/08/27 01:52:25;;;;;;;21.75;12.70;;;23.10;99.90;;;;;;5026727;28;20029;-47
2022/08/27 01:54:52;;;;;;;21.25;12.50;;;23.20;99.90;;;;;;5026894;28;20736;-50
2022/08/27 01:57:19;;;;;;;20.40;11.63;;;23.10;99.90;;;;;;5026094;28;20029;-50
2022/08/27 01:59:45;;;;;;;17.58;12.30;;;23.10;99.90;;;;;;5029117;28;20030;-51
2022/08/27 02:02:13;;;;;;;17.52;12.35;;;23.00;99.90;;;;;;4965888;28;20052;-49
2022/08/27 02:04:40;;;;;;;18.55;13.52;;;23.00;99.90;;;;;;5009874;28;20489;-48
2022/08/27 02:07:06;;;;;;;16.30;12.43;;;23.00;99.90;;;;;;5009674;28;20056;-48
2022/08/27 02:09:32;;;;;;;13.77;11.57;;;23.00;99.90;;;;;;5009792;28;20030;-47
2022/08/27 02:11:59;;;;;;;21.13;12.55;;;22.90;99.90;;;;;;5009411;28;20061;-49
2022/08/27 02:14:26;;;;;;;24.67;11.25;;;22.90;99.90;;;;;;5009867;28;20068;-48
2022/08/27 02:16:52;;;;;;;14.77;11.57;;;23.00;99.90;;;;;;5011761;28;20038;-47
2022/08/27 02:19:19;;;;;;;22.50;11.93;;;23.00;99.90;;;;;;5026508;28;20052;-48
2022/08/27 02:21:44;;;;;;;17.40;11.55;;;23.10;99.90;;;;;;5012337;28;20030;-51
2022/08/27 02:24:10;;;;;;;16.58;12.68;;;23.10;99.90;;;;;;5012074;28;20045;-48
2022/08/27 02:26:36;;;;;;;32.20;13.10;;;23.20;99.90;;;;;;5012349;28;20061;-46
2022/08/27 02:29:03;;;;;;;23.95;12.75;;;23.10;99.90;;;;;;5012000;28;20552;-49
2022/08/27 02:31:29;;;;;;;17.48;11.73;;;23.10;99.90;;;;;;5012035;28;20026;-50
2022/08/27 02:33:55;;;;;;;19.10;12.40;;;23.10;99.90;;;;;;5011962;28;20030;-48
2022/08/27 02:36:21;;;;;;;15.90;12.30;;;23.10;99.90;;;;;;5012144;28;20113;-48
2022/08/27 02:38:47;;;;;;;18.17;12.63;;;23.10;99.90;;;;;;5012208;28;20109;-50
2022/08/27 02:41:14;;;;;;;18.42;12.25;;;23.10;99.90;;;;;;5011792;28;20528;-50
2022/08/27 02:43:40;;;;;;;41.13;15.38;;;23.00;99.90;;;;;;5012143;28;20091;-48
2022/08/27 02:46:06;;;;;;;25.52;18.10;;;23.00;99.90;;;;;;5009610;28;20117;-47
2022/08/27 02:48:36;;;;;;;30.38;20.60;;;23.00;99.90;;;;;;5026155;28;20045;-48
2022/08/27 02:51:03;;;;;;;33.13;21.38;;;23.00;99.90;;;;;;5012291;28;20021;-48
2022/08/27 02:53:29;;;;;;;35.42;20.27;;;23.00;99.90;;;;;;5010907;28;20038;-49
2022/08/27 02:55:55;;;;;;;29.08;19.25;;;23.00;99.90;;;;;;5011813;28;20018;-49
2022/08/27 02:58:21;;;;;;;24.85;17.85;;;23.00;99.90;;;;;;5011787;28;20478;-51
2022/08/27 03:00:47;;;;;;;30.50;18.10;;;22.90;99.90;;;;;;5026115;28;20069;-49
2022/08/27 03:03:12;;;;;;;23.35;17.48;;;23.00;99.90;;;;;;5012128;28;20489;-48
2022/08/27 03:05:39;;;;;;;27.77;16.35;;;23.00;99.90;;;;;;5011720;28;20030;-48
2022/08/27 03:08:05;;;;;;;22.27;16.80;;;22.90;99.90;;;;;;5028855;28;20441;-48
2022/08/27 03:10:31;;;;;;;24.15;17.15;;;22.90;99.90;;;;;;5032293;28;20035;-48
2022/08/27 03:12:57;;;;;;;29.50;16.63;;;22.90;99.90;;;;;;5032378;28;20049;-49
2022/08/27 03:15:23;;;;;;;21.65;15.07;;;22.80;99.90;;;;;;4951262;28;20045;-50
2022/08/27 03:20:43;;;;;;;25.85;17.92;;;22.80;99.90;;;;;;5032822;28;20115;-50
2022/08/27 03:23:10;;;;;;;33.35;22.77;;;22.80;99.90;;;;;;5032151;28;20049;-50
2022/08/27 03:25:36;;;;;;;51.45;39.78;;;22.70;99.90;;;;;;5032450;28;20025;-49
2022/08/27 03:28:02;;;;;;;56.80;46.42;;;22.70;99.90;;;;;;5032200;28;20437;-49
2022/08/27 03:30:28;;;;;;;49.50;38.78;;;22.70;99.90;;;;;;5032398;28;20032;-46
2022/08/27 03:32:54;;;;;;;49.05;36.15;;;22.70;99.90;;;;;;4983238;28;20362;-53
2022/08/27 03:35:21;;;;;;;45.83;36.05;;;22.70;99.90;;;;;;5032188;28;20065;-51
2022/08/27 03:37:47;;;;;;;44.65;33.25;;;22.70;99.90;;;;;;5032178;28;20120;-50
2022/08/27 03:40:14;;;;;;;40.33;30.17;;;22.70;99.90;;;;;;5014988;28;20112;-50
2022/08/27 03:42:40;;;;;;;37.75;28.80;;;22.60;99.90;;;;;;5014825;28;20033;-49
2022/08/27 03:45:07;;;;;;;53.47;36.05;;;22.50;99.90;;;;;;5014964;28;20022;-47
2022/08/27 03:47:34;;;;;;;43.28;33.13;;;22.20;99.90;;;;;;5014986;28;20036;-48
2022/08/27 03:49:59;;;;;;;39.75;31.48;;;22.10;99.90;;;;;;5029064;28;20030;-49
2022/08/27 03:52:26;;;;;;;29.95;26.02;;;;;;;;;;5014368;28;20092;-49
2022/08/27 04:44:13;;;;;;;19.43;14.83;;;22.20;99.90;;;;;;5038857;28;20077;-48
2022/08/27 04:46:40;;;;;;;26.52;15.88;;;22.40;99.90;;;;;;5030531;28;20041;-50
2022/08/27 04:49:08;;;;;;;21.83;15.65;;;22.50;99.90;;;;;;4996072;28;20081;-48
2022/08/27 04:51:35;;;;;;;24.42;17.02;;;22.60;99.90;;;;;;5032375;28;20037;-49
2022/08/27 04:54:02;;;;;;;20.85;14.65;;;22.60;99.90;;;;;;5032343;28;20431;-48
2022/08/27 04:56:28;;;;;;;23.98;15.13;;;22.70;99.90;;;;;;4976883;28;20065;-50
2022/08/27 04:58:55;;;;;;;20.35;13.80;;;22.80;99.90;;;;;;5032228;28;20528;-49
2022/08/27 05:01:24;;;;;;;15.82;13.73;;;22.80;99.90;;;;;;5032603;28;20701;-50
2022/08/27 05:03:51;;;;;;;22.70;14.23;;;22.60;99.90;;;;;;5032766;28;20167;-50
2022/08/27 05:06:18;;;;;;;23.63;12.77;;;22.30;99.90;;;;;;5032087;28;20040;-49
2022/08/27 05:08:44;;;;;;;24.08;13.55;;;22.10;99.90;;;;;;5032868;28;20531;-50
2022/08/27 05:11:13;;;;;;;24.30;13.90;;;22.10;99.90;;;;;;5032058;28;20026;-49
2022/08/27 05:13:41;;;;;;;23.58;13.45;;;22.20;99.90;;;;;;5031943;28;20036;-48
2022/08/27 05:16:09;;;;;;;19.50;14.80;;;22.40;99.90;;;;;;5023277;28;20080;-48
2022/08/27 05:18:37;;;;;;;24.88;13.95;;;22.40;99.90;;;;;;5032383;28;20438;-50
2022/08/27 05:21:04;;;;;;;24.73;14.13;;;22.70;99.90;;;;;;5032280;28;20060;-49
2022/08/27 05:23:31;;;;;;;18.83;12.27;;;;;;;;;;5031964;28;20116;-48
2022/08/27 05:25:57;;;;;;;21.15;13.10;;;23.20;99.90;;;;;;5032147;28;20428;-48
2022/08/27 05:28:25;;;;;;;23.48;14.23;;;23.30;99.90;;;;;;5013304;28;20049;-50
2022/08/27 05:30:55;;;;;;;25.05;13.80;;;23.50;99.90;;;;;;5032310;28;20025;-52
2022/08/27 05:33:23;;;;;;;19.55;13.02;;;23.60;99.90;;;;;;5031546;28;20025;-50
2022/08/27 05:35:55;;;;;;;22.55;13.15;;;23.70;99.90;;;;;;5031720;28;20033;-50
2022/08/27 05:38:23;;;;;;;24.42;13.88;;;23.80;99.90;;;;;;5023534;28;20028;-51
2022/08/27 05:40:49;;;;;;;27.38;13.13;;;24.00;99.90;;;;;;5032148;28;20472;-48
2022/08/27 05:43:17;;;;;;;19.35;12.93;;;;;;;;;;5017343;28;20056;-50
2022/08/27 05:45:45;;;;;;;20.23;12.75;;;24.20;99.90;;;;;;5051461;28;20040;-47
2022/08/27 05:48:12;;;;;;;21.60;12.27;;;24.30;99.90;;;;;;5013490;28;20039;-49
2022/08/27 05:50:42;;;;;;;20.88;12.98;;;24.40;99.90;;;;;;5052143;28;20534;-48
2022/08/27 05:53:09;;;;;;;21.33;12.77;;;24.50;99.90;;;;;;5051005;28;20108;-50
2022/08/27 05:55:43;;;;;;;17.15;11.80;;;24.70;99.90;;;;;;5051387;28;20021;-50
2022/08/27 06:01:03;;;;;;;20.00;13.15;;;24.70;99.90;;;;;;5012634;28;20049;-53
2022/08/27 06:01:04;;;;;;;19.02;12.45;;;24.70;99.90;;;;;;5019576;28;20034;-51
2022/08/27 06:03:33;;;;;;;;;;;24.80;99.90;;;;;;5042665;28;20036;-50
2022/08/27 06:06:05;;;;;;;35.55;23.10;;;24.70;99.90;;;;;;5028689;28;19991;-49
2022/08/27 06:08:31;;;;;;;20.33;11.52;;;24.80;99.90;;;;;;5029153;28;20167;-50
2022/08/27 06:11:00;;;;;;;22.55;12.50;;;25.00;99.90;;;;;;5028879;28;20615;-51
2022/08/27 06:13:28;;;;;;;21.65;12.85;;;25.10;99.90;;;;;;5028440;28;20037;-52
2022/08/27 06:16:05;;;;;;;17.23;11.98;;;25.20;99.90;;;;;;5028713;28;20123;-51
2022/08/27 06:18:31;;;;;;;18.30;12.15;;;25.30;99.90;;;;;;5028600;28;20037;-50
2022/08/27 06:20:57;;;;;;;23.05;12.60;;;25.20;99.90;;;;;;5028719;28;20095;-53
2022/08/27 06:23:24;;;;;;;20.83;11.60;;;25.10;99.90;;;;;;5028624;28;20046;-54
2022/08/27 06:25:50;;;;;;;19.77;11.32;;;25.30;99.90;;;;;;5028808;28;20508;-52
2022/08/27 06:28:16;;;;;;;17.23;11.55;;;25.60;99.90;;;;;;5028364;28;20072;-55
2022/08/27 06:30:41;;;;;;;21.05;11.32;;;25.80;99.90;;;;;;5029405;28;20030;-54
2022/08/27 06:33:07;;;;;;;16.42;11.45;;;26.00;99.90;;;;;;5028656;28;20036;-50
2022/08/27 06:35:36;;;;;;;18.25;11.02;;;26.20;99.90;;;;;;5002360;28;20045;-51
2022/08/27 06:38:01;;;;;;;18.67;10.43;;;26.20;99.90;;;;;;5048347;28;20392;-54
2022/08/27 06:40:27;;;;;;;24.92;12.23;;;26.40;99.90;;;;;;5050945;28;20024;-53
2022/08/27 06:42:54;;;;;;;21.02;11.20;;;;;;;;;;4999156;28;20056;-53
2022/08/27 06:45:19;;;;;;;16.67;10.65;;;26.60;99.90;;;;;;5054187;28;20429;-51
2022/08/27 06:47:45;;;;;;;22.30;10.95;;;;;;;;;;5034631;28;20071;-57
2022/08/27 06:50:12;;;;;;;20.10;11.43;;;;;;;;;;5054712;28;20041;-53
2022/08/27 06:52:38;;;;;;;23.25;11.52;;;;;;;;;;5054728;28;20349;-55
2022/08/27 06:55:05;;;;;;;24.17;11.07;;;;;;;;;;5037427;28;20147;-54
2022/08/27 06:57:31;;;;;;;17.10;11.05;;;;;;;;;;5054790;28;20032;-53
2022/08/27 06:59:57;;;;;;;23.02;10.93;;;;;;;;;;5016654;28;20041;-53
2022/08/27 07:02:23;;;;;;;18.50;10.88;;;;;;;;;;5054796;28;20051;-51
2022/08/27 07:04:52;;;;;;;18.60;10.35;;;;;;;;;;5054575;28;20031;-52
2022/08/27 07:07:18;;;;;;;20.40;11.05;;;27.60;99.90;;;;;;5055065;28;20083;-56
2022/08/27 07:09:44;;;;;;;15.18;10.23;;;27.60;99.90;;;;;;5054980;28;20029;-54
2022/08/27 07:12:10;;;;;;;19.77;11.38;;;27.70;99.90;;;;;;5002735;28;20040;-51
2022/08/27 07:14:35;;;;;;;18.27;11.98;;;27.70;99.90;;;;;;4995229;28;20044;-55
2022/08/27 07:17:02;;;;;;;14.57;9.63;;;;;;;;;;5050109;28;20156;-55
2022/08/27 07:19:29;;;;;;;21.98;11.85;;;;;;;;;;5054935;28;20036;-57
2022/08/27 07:21:55;;;;;;;16.50;11.18;;;;;;;;;;5036305;28;20111;-52
2022/08/27 07:24:21;;;;;;;19.30;11.23;;;;;;;;;;5054000;28;20060;-53
2022/08/27 07:26:47;;;;;;;20.95;12.27;;;;;;;;;;5054037;28;20037;-57
2022/08/27 07:29:14;;;;;;;24.75;11.95;;;;;;;;;;5003161;28;20055;-57
2022/08/27 07:31:41;;;;;;;21.98;11.27;;;;;;;;;;5045823;28;20088;-52
2022/08/27 07:34:07;;;;;;;19.13;11.35;;;;;;;;;;5040760;28;20519;-55
2022/08/27 07:36:34;;;;;;;20.88;11.07;;;28.80;99.90;;;;;;5053514;28;20507;-52
2022/08/27 07:39:00;;;;;;;21.70;10.20;;;28.80;99.90;;;;;;5035047;28;20066;-55
2022/08/27 07:41:26;;;;;;;19.45;10.85;;;29.00;99.90;;;;;;4985393;28;20465;-53
2022/08/27 07:46:36;;;;;;;19.98;9.55;;;29.20;99.90;;;;;;5053711;28;20538;-55
2022/08/27 07:49:02;;;;;;;17.00;9.05;;;;;;;;;;5053557;28;20036;-51
2022/08/27 07:51:31;;;;;;;19.92;10.07;;;;;;;;;;5015393;28;20088;-56
2022/08/27 07:53:57;;;;;;;24.20;10.35;;;;;;;;;;5054139;28;20033;-52
2022/08/27 07:56:23;;;;;;;16.52;8.90;;;;;;;;;;5053061;28;20091;-53
2022/08/27 07:58:49;;;;;;;24.23;9.93;;;30.10;99.90;;;;;;5053440;28;20041;-53
2022/08/27 08:01:16;;;;;;;20.83;9.57;;;;;;;;;;5034443;28;20033;-54
2022/08/27 08:03:43;;;;;;;13.20;8.68;;;;;;;;;;5053708;28;20438;-51
2022/08/27 08:06:10;;;;;;;16.02;9.98;;;;;;;;;;5053361;28;20472;-54
2022/08/27 08:08:38;;;;;;;17.55;9.35;;;;;;;;;;5053178;28;20075;-53
2022/08/27 08:11:05;;;;;;;20.80;9.45;;;;;;;;;;5053145;28;20079;-50
2022/08/27 08:13:31;;;;;;;19.58;9.27;;;30.70;99.90;;;;;;5052960;28;20455;-55
2022/08/27 08:15:58;;;;;;;28.23;10.35;;;;;;;;;;5018626;28;20037;-52
2022/08/27 08:18:24;;;;;;;21.45;9.60;;;31.20;99.90;;;;;;5053344;28;20392;-52
2022/08/27 08:20:51;;;;;;;19.00;8.75;;;;;;;;;;5052836;28;20464;-52
2022/08/27 08:23:17;;;;;;;16.58;9.02;;;;;;;;;;5052824;28;20044;-54
2022/08/27 08:25:43;;;;;;;30.30;9.25;;;;;;;;;;5053392;28;20033;-52
2022/08/27 08:28:10;;;;;;;14.73;7.90;;;31.70;99.90;;;;;;5052764;28;20025;-55
2022/08/27 08:30:36;;;;;;;14.45;7.70;;;31.90;99.90;;;;;;5052788;28;20183;-53
2022/08/27 08:33:02;;;;;;;18.05;8.43;;;;;;;;;;5052895;28;20043;-53
2022/08/27 08:35:28;;;;;;;18.38;8.55;;;32.40;99.90;;;;;;5052822;28;20029;-52
2022/08/27 08:37:54;;;;;;;19.00;8.05;;;32.50;99.90;;;;;;5017797;28;20392;-52
2022/08/27 08:40:42;;;;;;;17.33;8.82;;;32.60;99.90;;;;;;5000708;28;20041;-52
2022/08/27 08:43:12;;;;;;;17.15;8.25;;;;;;;;;;5052281;28;20476;-53
2022/08/27 08:45:39;;;;;;;19.10;8.48;;;;;;;;;;5052833;28;20041;-52
2022/08/27 08:48:11;;;;;;;16.13;7.80;;;;;;;;;;5052903;28;20494;-52
2022/08/27 08:50:53;;;;;;;14.40;7.85;;;;;;;;;;5052293;28;20032;-52
2022/08/27 08:53:24;;;;;;;26.45;8.32;;;;;;;;;;5048898;28;20043;-55
2022/08/27 08:56:00;;;;;;;15.25;8.15;;;33.70;99.90;;;;;;5052882;28;20025;-53
2022/08/27 08:58:40;;;;;;;20.75;8.85;;;33.70;99.90;;;;;;5051696;28;20480;-52
2022/08/27 09:01:08;;;;;;;18.25;8.38;;;33.90;99.90;;;;;;5052297;28;20107;-53
2022/08/27 09:03:39;;;;;;;19.02;9.07;;;33.90;99.90;;;;;;5051831;28;20087;-53
2022/08/27 09:06:09;;;;;;;14.57;8.85;;;34.10;99.90;;;;;;5048972;28;20524;-55
2022/08/27 09:08:41;;;;;;;19.10;8.32;;;34.30;99.90;;;;;;5051871;28;20032;-54
2022/08/27 09:11:31;;;;;;;21.02;9.30;;;34.40;99.90;;;;;;5041616;28;20029;-55
2022/08/27 09:14:23;;;;;;;19.52;8.30;;;34.60;99.90;;;;;;5051924;28;20029;-52
2022/08/27 09:16:49;;;;;;;22.75;9.30;;;34.70;99.90;;;;;;4989990;28;20038;-54
2022/08/27 09:19:15;;;;;;;20.63;8.48;;;35.00;99.90;;;;;;4990378;28;20034;-55
2022/08/27 09:21:55;;;;;;;17.65;8.93;;;35.10;99.90;;;;;;4990389;28;20072;-54
2022/08/27 09:24:51;;;;;;;19.52;9.52;;;34.70;99.90;;;;;;4990529;28;20042;-52
2022/08/27 09:27:19;;;;;;;19.58;9.02;;;35.20;99.90;;;;;;4990589;28;20143;-54
2022/08/27 09:29:54;;;;;;;22.27;9.88;;;35.20;99.90;;;;;;4989860;28;20185;-56
2022/08/27 09:32:28;;;;;;;23.45;8.85;;;35.00;99.90;;;;;;4990503;28;20027;-52
2022/08/27 09:34:58;;;;;;;14.25;8.05;;;34.90;99.90;;;;;;4989921;28;20058;-53
2022/08/27 09:37:27;;;;;;;17.87;8.90;;;35.10;99.90;;;;;;4973700;28;20482;-56
2022/08/27 09:40:22;;;;;;;17.17;8.45;;;35.10;99.90;;;;;;4989751;28;20042;-56
2022/08/27 09:42:54;;;;;;;19.98;8.10;;;35.50;98.10;;;;;;4970077;28;20459;-55
2022/08/27 09:45:26;;;;;;;16.02;8.27;;;35.70;98.00;;;;;;4970445;28;20035;-53
2022/08/27 09:48:09;;;;;;;18.77;8.48;;;35.90;98.40;;;;;;4970748;28;20070;-52
2022/08/27 09:50:46;;;;;;;15.05;8.13;;;36.10;97.90;;;;;;4970270;28;20046;-54
2022/08/27 09:53:53;;;;;;;15.23;6.97;;;36.40;97.60;;;;;;4979660;28;20512;-53
2022/08/27 09:56:25;;;;;;;20.55;8.13;;;35.70;96.80;;;;;;5009006;28;20088;-55
2022/08/27 09:59:22;;;;;;;16.27;8.05;;;36.10;96.00;;;;;;5009302;28;20663;-54
2022/08/27 10:01:55;;;;;;;13.77;6.20;;;36.40;95.00;;;;;;5008358;28;20041;-56
2022/08/27 10:04:33;;;;;;;22.15;7.85;;;36.60;94.00;;;;;;5009201;28;20100;-55
2022/08/27 10:07:17;;;;;;;13.43;7.70;;;36.80;95.00;;;;;;5006121;28;20030;-55
2022/08/27 10:10:00;;;;;;;22.40;7.85;;;36.10;93.70;;;;;;5000582;28;20121;-54
2022/08/27 10:12:26;;;;;;;12.85;7.25;;;35.70;95.20;;;;;;5005342;28;20034;-56
2022/08/27 10:14:59;;;;;;;15.98;7.93;;;36.10;95.10;;;;;;5009104;28;20030;-53
2022/08/27 10:17:27;;;;;;;19.70;8.48;;;36.10;94.20;;;;;;5009194;28;20102;-54
2022/08/27 10:20:05;;;;;;;17.52;7.57;;;36.40;95.00;;;;;;5037988;28;20526;-52
2022/08/27 10:23:08;;;;;;;19.67;7.22;;;36.90;94.50;;;;;;5055016;28;20074;-55
2022/08/27 10:25:51;;;;;;;25.30;8.63;;;37.00;94.80;;;;;;5050043;28;20033;-54
2022/08/27 10:28:33;;;;;;;17.83;7.53;;;37.30;94.50;;;;;;5047208;28;20023;-54
2022/08/27 10:31:21;;;;;;;21.20;7.93;;;37.20;94.10;;;;;;5040156;28;20512;-57
2022/08/27 10:34:49;;;;;;;20.13;7.18;;;36.70;94.10;;;;;;5023483;28;20048;-55
2022/08/27 10:37:34;;;;;;;21.98;7.65;;;36.60;94.00;;;;;;4953719;28;20047;-55
2022/08/27 10:40:06;;;;;;;19.60;7.13;;;36.80;93.80;;;;;;4948200;28;20041;-54
2022/08/27 10:42:59;;;;;;;14.32;6.40;;;37.20;94.00;;;;;;4952930;28;20047;-54
2022/08/27 10:45:24;;;;;;;14.02;6.30;;;37.60;93.40;;;;;;4953507;28;20565;-54
2022/08/27 10:47:51;;;;;;;12.52;7.43;;;;;;;;;;4957308;28;20078;-53
2022/08/27 10:50:33;;;;;;;18.88;8.50;;;38.10;92.90;;;;;;4959096;28;20571;-53
2022/08/27 10:53:10;;;;;;;13.40;6.85;;;37.90;92.90;;;;;;4954091;28;20537;-53
2022/08/27 10:55:40;;;;;;;15.90;7.15;;;37.50;92.40;;;;;;4942695;28;20041;-53
2022/08/27 10:58:23;;;;;;;18.60;6.88;;;;;;;;;;4957053;28;20607;-54
2022/08/27 11:01:21;;;;;;;15.10;7.13;;;38.10;91.70;;;;;;4913402;29;20035;-53
2022/08/27 11:04:01;;;;;;;17.38;6.47;;;38.30;91.60;;;;;;4956093;28;20779;-52
2022/08/27 11:06:35;;;;;;;15.85;6.32;;;38.00;91.10;;;;;;4957477;28;20034;-53
2022/08/27 11:09:13;;;;;;;15.98;6.65;;;38.20;90.10;;;;;;4955949;28;20558;-52
2022/08/27 11:11:44;;;;;;;15.05;6.75;;;38.60;90.80;;;;;;4993073;28;20058;-53
2022/08/27 11:14:22;;;;;;;;;;;38.80;90.80;;;;;;5026335;28;20051;-51
2022/08/27 11:16:51;;;;;;;13.70;5.30;;;;;;;;;;5054171;28;19937;-55
2022/08/27 11:19:25;;;;;;;13.00;5.50;;;39.00;88.80;;;;;;5002391;28;20107;-50
2022/08/27 11:22:14;;;;;;;16.67;5.72;;;39.10;88.00;;;;;;5054718;28;20090;-50
2022/08/27 11:25:01;;;;;;;15.57;5.70;;;38.40;86.10;;;;;;5049488;28;20032;-50
2022/08/27 11:27:30;;;;;;;13.20;4.80;;;38.60;86.50;;;;;;5047125;28;20022;-50
2022/08/27 11:30:15;;;;;;;21.60;5.80;;;38.60;87.10;;;;;;5006735;28;20048;-50
2022/08/27 11:33:08;;;;;;;11.13;5.55;;;39.00;87.70;;;;;;5054196;28;20052;-49
2022/08/27 11:35:51;;;;;;;13.85;5.00;;;38.70;84.90;;;;;;5054384;28;20037;-49
2022/08/27 11:38:26;;;;;;;17.65;4.22;;;38.40;83.70;;;;;;5053707;28;20025;-49
2022/08/27 11:41:03;;;;;;;11.45;4.60;;;39.00;82.10;;;;;;5053656;28;20035;-49
2022/08/27 11:43:33;;;;;;;11.52;4.20;;;39.00;84.20;;;;;;5053818;28;20048;-49
2022/08/27 11:46:05;;;;;;;13.90;4.20;;;39.20;83.30;;;;;;5053637;28;20107;-49
2022/08/27 11:48:40;;;;;;;18.38;5.30;;;39.30;81.40;;;;;;5050082;28;20116;-49
2022/08/27 11:51:05;;;;;;;10.68;3.90;;;39.30;79.70;;;;;;5034363;28;20049;-51
2022/08/27 11:53:38;;;;;;;16.05;4.90;;;38.70;79.50;;;;;;5045594;28;20037;-49
2022/08/27 11:56:29;;;;;;;12.48;3.60;;;39.10;81.30;;;;;;5053685;28;20086;-49
2022/08/27 11:59:07;;;;;;;8.63;4.10;;;39.20;80.30;;;;;;5042336;28;20029;-49
2022/08/27 12:01:33;;;;;;;12.23;4.53;;;38.50;79.90;;;;;;5051380;28;20029;-50
2022/08/27 12:04:05;;;;;;;15.95;5.32;;;37.70;80.00;;;;;;5045692;28;20033;-50
2022/08/27 12:06:41;;;;;;;16.02;4.82;;;37.70;81.20;;;;;;5006498;28;20097;-49
2022/08/27 12:09:19;;;;;;;11.40;5.07;;;37.80;81.30;;;;;;5031668;28;20041;-50
2022/08/27 12:12:20;;;;;;;16.85;5.35;;;38.40;81.60;;;;;;4992641;28;20048;-50
2022/08/27 12:15:03;;;;;;;9.52;3.58;;;38.90;79.90;;;;;;5046275;28;20082;-49
2022/08/27 12:17:42;;;;;;;14.57;3.90;;;38.90;79.60;;;;;;5047533;28;20098;-51
2022/08/27 12:20:54;;;;;;;8.38;3.85;;;39.00;77.80;;;;;;5009523;28;20044;-56
2022/08/27 12:23:39;;;;;;;13.23;3.92;;;39.10;79.40;;;;;;5051045;28;20116;-51
2022/08/27 12:26:29;;;;;;;12.63;5.53;;;39.50;81.00;;;;;;5046385;28;20392;-50
2022/08/27 12:29:16;;;;;;;12.32;3.50;;;;;;;;;;5051026;28;20045;-51
2022/08/27 12:31:47;;;;;;;12.32;4.20;;;38.30;75.30;;;;;;5035382;28;20025;-51
2022/08/27 12:34:19;;;;;;;7.40;3.67;;;38.50;78.50;;;;;;5051993;28;20066;-51
2022/08/27 12:36:48;;;;;;;8.32;3.50;;;38.90;76.60;;;;;;5044283;28;20060;-51
2022/08/27 12:39:17;;;;;;;17.35;4.20;;;38.80;77.10;;;;;;5033463;28;20076;-52
2022/08/27 12:41:48;;;;;;;12.80;4.72;;;39.20;79.10;;;;;;5051363;28;20044;-51
2022/08/27 12:44:27;;;;;;;15.93;4.40;;;39.60;78.30;;;;;;5050174;28;20057;-52
2022/08/27 12:46:56;;;;;;;12.32;4.55;;;39.20;77.40;;;;;;5044060;28;20029;-51
2022/08/27 12:49:26;;;;;;;15.85;4.85;;;39.00;77.70;;;;;;5033079;28;20419;-51
2022/08/27 12:51:56;;;;;;;10.93;4.27;;;39.40;78.50;;;;;;5017194;28;20500;-51
2022/08/27 12:54:43;;;;;;;14.57;5.00;;;39.50;78.40;;;;;;5000537;28;20484;-51
2022/08/27 12:57:15;;;;;;;19.13;5.55;;;39.30;77.70;;;;;;5051526;28;20025;-51
2022/08/27 13:00:12;;;;;;;12.18;5.00;;;39.60;80.50;;;;;;5052515;28;20033;-51
2022/08/27 13:02:57;;;;;;;13.00;4.30;;;;;;;;;;5050901;28;20132;-49
2022/08/27 13:05:23;;;;;;;11.65;4.72;;;39.60;77.20;;;;;;5047234;28;20121;-46
2022/08/27 13:07:51;;;;;;;17.30;5.60;;;39.80;78.80;;;;;;5052325;28;20499;-53
2022/08/27 13:10:18;;;;;;;14.77;5.22;;;39.90;78.00;;;;;;5017148;28;20033;-53
2022/08/27 13:12:46;;;;;;;11.20;5.15;;;40.00;80.20;;;;;;5018162;28;20052;-56
2022/08/27 13:15:14;;;;;;;9.48;4.57;;;39.60;80.30;;;;;;5037942;28;20039;-52
2022/08/27 13:17:44;;;;;;;14.88;5.30;;;38.90;77.50;;;;;;5027516;28;20431;-55
2022/08/27 13:20:22;;;;;;;14.13;6.23;;;38.90;78.20;;;;;;5012615;28;20496;-57
2022/08/27 13:22:50;;;;;;;12.07;4.82;;;38.80;77.90;;;;;;5035784;28;20143;-52
2022/08/27 13:25:27;;;;;;;16.80;5.55;;;38.70;77.30;;;;;;5026744;28;20439;-55
2022/08/27 13:28:02;;;;;;;14.50;4.95;;;38.40;78.00;;;;;;5022423;28;20127;-52
2022/08/27 13:30:30;;;;;;;14.80;5.22;;;38.80;79.60;;;;;;5021276;28;20088;-49
2022/08/27 13:32:57;;;;;;;17.40;5.55;;;38.50;81.70;;;;;;5021762;28;20067;-50
2022/08/27 13:35:23;;;;;;;13.88;5.15;;;38.20;81.10;;;;;;5028965;28;20045;-50
2022/08/27 13:37:56;;;;;;;9.82;5.38;;;38.20;82.20;;;;;;5018618;28;20088;-51
2022/08/27 13:40:27;;;;;;;13.40;5.50;;;38.20;84.30;;;;;;5019352;28;20095;-49
2022/08/27 13:42:54;;;;;;;12.40;6.05;;;38.10;81.20;;;;;;5032432;28;20045;-49
2022/08/27 13:45:20;;;;;;;21.38;7.32;;;38.10;80.90;;;;;;5051288;28;20055;-50
2022/08/27 13:47:48;;;;;;;15.68;5.93;;;38.10;80.90;;;;;;5032600;28;20037;-50
2022/08/27 13:50:34;;;;;;;13.40;5.32;;;37.90;81.00;;;;;;5043848;28;20479;-50
2022/08/27 13:55:56;;;;;;;14.13;6.13;;;37.50;90.00;;;;;;5051748;28;20164;-50
2022/08/27 13:58:30;;;;;;;14.57;5.18;;;37.10;82.30;;;;;;5051996;28;20033;-49
2022/08/27 14:01:13;;;;;;;14.07;5.00;;;37.20;84.40;;;;;;5051363;28;20025;-50
2022/08/27 14:03:57;;;;;;;13.48;5.00;;;37.50;84.80;;;;;;5047792;28;20079;-49